Wevertown, New York
Current Conditions -  °F | °C
As of 11:01 AM on Friday 24 Oct 2014 (Local Time) from KGFL Reporting Station
Overcast Overcast  
Wind Chill: 45°   Ceiling: 1600
Heat Index: 45°   Visibility: 10mi
Dew Point: 43°   Wind: 3mph
Humidity: 93%   Direction: 150°SSE
Pressure: 29.85"   Gusts: NA
Location:  43.63°N, 73.94°W
Report Text: KGFL 241501Z AUTO 15003KT 10SM FEW004 BKN016 OVC022 07/06 A2985 RMK AO2 T00720061
Loading
Personal Weather Stations






























Interactive Weather Map
Tropical Storm Tracking
New forecast layout! Learn more

10-Day Weather Forecast

Advertisements
Track Severe Weather on mobile